Time;durP1;ratioP1;P1;durP2;ratioP2;P2;SDS_P1;SDS_P2;PMS_P1;PMS_P2;Temp;Humidity;BMP_temperature;BMP_pressure;BME280_temperature;BME280_humidity;BME280_pressure;Samples;Min_cycle;Max_cycle;Signal;HPM_P1;HPM_P2
2023/07/10 00:01:16;;;;;;;5.73;3.47;;;;;;;25.22;53.79;99776.97;4956749;29;20192;-65
2023/07/10 00:03:43;;;;;;;4.23;3.83;;;;;;;25.02;54.00;99767.06;4956065;29;20623;-65
2023/07/10 00:06:12;;;;;;;3.70;3.50;;;;;;;24.89;54.62;99771.25;4966648;28;20204;-65
2023/07/10 00:08:39;;;;;;;3.60;3.50;;;;;;;24.85;54.79;99767.47;4975564;28;20199;-65
2023/07/10 00:11:13;;;;;;;4.43;3.73;;;;;;;24.56;55.54;99773.88;4975861;28;20192;-65
2023/07/10 00:13:40;;;;;;;5.00;3.70;;;;;;;24.40;56.27;99761.44;4975536;28;20190;-65
2023/07/10 00:16:14;;;;;;;3.60;3.30;;;;;;;24.18;55.98;99761.03;4964494;28;20204;-66
2023/07/10 00:18:40;;;;;;;3.63;3.27;;;;;;;24.32;55.23;99770.19;4956125;29;20227;-65
2023/07/10 00:21:07;;;;;;;3.93;3.63;;;;;;;24.37;55.27;99765.53;4956363;29;20191;-66
2023/07/10 00:23:34;;;;;;;3.57;3.27;;;;;;;24.30;55.30;99772.38;4956057;29;20207;-65
2023/07/10 00:26:00;;;;;;;3.97;3.53;;;;;;;24.25;54.82;99775.91;4955973;29;20632;-66
2023/07/10 00:28:27;;;;;;;3.20;3.00;;;;;;;24.13;55.40;99764.56;4955894;29;20196;-66
2023/07/10 00:30:54;;;;;;;3.73;3.50;;;;;;;24.11;55.18;99764.03;4954888;28;20275;-64
2023/07/10 00:33:22;;;;;;;3.97;3.07;;;;;;;24.16;55.52;99764.00;4955885;29;20696;-64
2023/07/10 00:35:48;;;;;;;4.33;3.20;;;;;;;23.97;55.53;99771.13;4956070;29;20207;-65
2023/07/10 00:38:23;;;;;;;3.77;3.57;;;;;;;23.88;56.07;99774.66;4956071;29;20203;-67
2023/07/10 00:40:50;;;;;;;3.40;3.20;;;;;;;23.62;56.50;99768.47;4955883;29;20223;-67
2023/07/10 00:43:29;;;;;;;4.33;3.17;;;;;;;23.69;56.48;99769.00;4955456;29;20257;-67
2023/07/10 00:46:02;;;;;;;3.70;3.40;;;;;;;23.73;56.64;99769.28;4955531;29;20692;-68
2023/07/10 00:48:40;;;;;;;9.83;4.33;;;;;;;23.74;56.21;99765.47;4956094;29;20192;-67
2023/07/10 00:51:16;;;;;;;4.33;3.63;;;;;;;23.74;56.04;99765.47;4955817;29;20198;-68
2023/07/10 00:53:45;;;;;;;3.57;3.27;;;;;;;23.69;55.91;99763.56;4955595;29;20199;-68
2023/07/10 00:56:17;;;;;;;3.03;2.77;;;;;;;23.68;56.08;99767.38;4955746;29;20209;-67
2023/07/10 00:58:45;;;;;;;3.47;3.07;;;;;;;23.54;56.09;99760.91;4955896;29;20191;-66
2023/07/10 01:01:15;;;;;;;4.37;3.40;;;;;;;23.52;56.45;99760.34;4954921;29;20199;-67
2023/07/10 01:03:45;;;;;;;3.33;3.13;;;;;;;23.51;56.27;99761.44;4955482;29;20262;-66
2023/07/10 01:06:18;;;;;;;4.03;3.50;;;;;;;23.63;56.37;99759.25;4965391;28;20198;-67
2023/07/10 01:08:50;;;;;;;3.43;2.67;;;;;;;23.75;56.48;99762.47;4974923;28;20202;-67
2023/07/10 01:11:18;;;;;;;3.40;3.17;;;;;;;23.75;56.27;99762.47;4974735;28;20190;-67
2023/07/10 01:13:47;;;;;;;3.97;3.40;;;;;;;23.67;56.44;99760.31;4974933;28;20205;-67
2023/07/10 01:16:14;;;;;;;3.27;3.07;;;;;;;23.48;56.58;99758.47;4962396;28;20722;-67
2023/07/10 01:18:43;;;;;;;5.23;3.10;;;;;;;23.48;56.52;99756.56;4955387;29;20640;-67
2023/07/10 01:21:14;;;;;;;3.33;3.13;;;;;;;23.52;56.41;99752.22;4954971;29;20198;-67
2023/07/10 01:23:41;;;;;;;3.30;3.10;;;;;;;23.61;56.19;99745.13;4955030;29;20246;-66
2023/07/10 01:26:08;;;;;;;3.40;3.10;;;;;;;23.71;56.63;99761.41;4954668;29;20282;-66
2023/07/10 01:28:35;;;;;;;2.73;2.63;;;;;;;23.87;56.38;99760.28;4954834;29;20282;-67
2023/07/10 01:31:05;;;;;;;3.40;3.10;;;;;;;23.84;55.66;99763.53;4954234;29;20199;-66
2023/07/10 01:33:36;;;;;;;3.10;2.80;;;;;;;23.80;55.81;99765.19;4954922;29;20199;-66
2023/07/10 01:36:04;;;;;;;3.20;3.03;;;;;;;23.63;56.48;99769.28;4955078;29;20199;-67
2023/07/10 01:38:38;;;;;;;3.20;3.00;;;;;;;23.61;58.00;99764.13;4954970;29;20257;-66
2023/07/10 01:41:15;;;;;;;3.13;2.93;;;;;;;23.64;57.94;99769.00;4954903;29;20188;-67
2023/07/10 01:43:41;;;;;;;3.87;3.40;;;;;;;23.74;56.56;99771.72;4954415;28;20191;-67
2023/07/10 01:46:18;;;;;;;4.17;3.23;;;;;;;23.43;56.89;99770.13;4954696;29;20222;-67
2023/07/10 01:48:45;;;;;;;3.03;2.83;;;;;;;23.11;58.14;99766.84;4954558;29;20625;-67
2023/07/10 01:51:12;;;;;;;3.20;3.10;;;;;;;22.74;59.41;99771.69;4954354;29;20199;-66
2023/07/10 01:53:43;;;;;;;3.63;3.43;;;;;;;22.56;60.10;99763.25;4954931;29;20263;-66
2023/07/10 01:56:10;;;;;;;3.77;3.47;;;;;;;22.65;61.29;99772.47;4954333;29;20192;-67
2023/07/10 01:58:37;;;;;;;3.30;3.10;;;;;;;22.67;59.83;99767.59;4954808;29;20263;-66
2023/07/10 02:01:03;;;;;;;4.50;3.73;;;;;;;22.79;59.46;99766.25;4953751;29;20208;-67
2023/07/10 02:03:30;;;;;;;5.07;3.00;;;;;;;22.69;59.92;99768.13;4954223;29;20220;-67
2023/07/10 02:05:57;;;;;;;3.27;3.10;;;;;;;22.53;60.82;99767.28;4962291;28;20219;-67
2023/07/10 02:08:25;;;;;;;3.50;3.20;;;;;;;22.43;61.32;99764.53;4973728;28;20205;-67
2023/07/10 02:10:53;;;;;;;4.27;3.53;;;;;;;22.08;62.47;99767.09;4973568;28;20199;-67
2023/07/10 02:13:20;;;;;;;3.70;3.50;;;;;;;21.92;63.36;99762.69;4973713;28;20196;-66
2023/07/10 02:15:47;;;;;;;3.67;2.90;;;;;;;21.95;63.59;99764.03;4965355;28;20196;-66
2023/07/10 02:18:13;;;;;;;3.83;3.50;;;;;;;21.95;63.41;99756.75;4954226;29;20208;-67
2023/07/10 02:20:41;;;;;;;3.50;3.20;;;;;;;21.90;63.58;99743.22;4953998;29;20652;-66
2023/07/10 02:23:08;;;;;;;3.10;2.90;;;;;;;21.99;63.68;99757.03;4953879;29;20583;-67
2023/07/10 02:25:35;;;;;;;3.73;3.40;;;;;;;22.12;62.99;99757.38;4954394;29;20274;-66
2023/07/10 02:28:03;;;;;;;3.50;3.30;;;;;;;22.05;63.29;99756.78;4953925;29;20748;-66
2023/07/10 02:30:30;;;;;;;3.70;3.50;;;;;;;22.11;63.05;99755.75;4953585;29;20623;-66
2023/07/10 02:32:57;;;;;;;5.90;3.40;;;;;;;22.11;63.19;99755.75;4954350;28;20635;-66
2023/07/10 02:35:23;;;;;;;4.43;4.10;;;;;;;22.16;63.05;99758.47;4954080;28;20272;-67
2023/07/10 02:37:50;;;;;;;3.97;3.67;;;;;;;22.16;62.89;99757.66;4954299;28;20197;-67
2023/07/10 02:40:17;;;;;;;3.87;3.27;;;;;;;22.05;63.32;99759.50;4953743;28;20212;-66
2023/07/10 02:42:44;;;;;;;3.43;3.13;;;;;;;22.12;64.12;99756.56;4954178;28;20201;-66
2023/07/10 02:45:13;;;;;;;6.20;3.57;;;;;;;22.05;63.67;99762.22;4953849;28;20224;-66
2023/07/10 02:47:39;;;;;;;4.53;3.13;;;;;;;22.21;63.68;99763.91;4953960;28;20636;-66
2023/07/10 02:50:08;;;;;;;3.30;2.90;;;;;;;22.26;62.66;99772.03;4952965;28;20661;-67
2023/07/10 02:52:34;;;;;;;3.57;3.27;;;;;;;22.18;62.67;99767.16;4954003;29;20254;-66
2023/07/10 02:55:01;;;;;;;3.43;3.17;;;;;;;22.05;63.17;99767.63;4956539;28;20199;-67
2023/07/10 02:57:28;;;;;;;5.40;3.30;;;;;;;22.00;63.29;99767.59;4957567;29;20620;-66
2023/07/10 02:59:54;;;;;;;3.40;3.10;;;;;;;22.10;63.31;99773.06;4957610;29;20247;-66
2023/07/10 03:02:23;;;;;;;4.00;2.83;;;;;;;22.05;63.32;99767.63;4957738;29;20196;-66
2023/07/10 03:04:49;;;;;;;3.40;3.20;;;;;;;22.11;63.31;99769.28;4957848;29;20224;-66
2023/07/10 03:07:16;;;;;;;3.10;2.90;;;;;;;22.11;63.63;99765.75;4976372;28;20262;-67
2023/07/10 03:09:43;;;;;;;4.07;3.77;;;;;;;22.27;63.41;99764.75;4976993;28;20594;-66
2023/07/10 03:12:10;;;;;;;16.73;3.70;;;;;;;22.42;63.69;99767.50;4976816;28;20195;-67
2023/07/10 03:14:37;;;;;;;5.67;3.60;;;;;;;22.45;62.36;99773.19;4976531;28;20227;-67
2023/07/10 03:17:04;;;;;;;6.40;3.30;;;;;;;22.62;62.78;99778.44;4958440;28;20274;-67
2023/07/10 03:19:32;;;;;;;3.80;3.60;;;;;;;22.67;61.49;99787.34;4957233;29;20661;-67
2023/07/10 03:21:59;;;;;;;5.67;3.87;;;;;;;22.73;61.42;99797.16;4956191;29;20192;-67
2023/07/10 03:24:26;;;;;;;3.70;3.50;;;;;;;22.66;61.47;99804.69;4957111;29;20198;-66
2023/07/10 03:26:53;;;;;;;3.80;3.50;;;;;;;22.75;61.14;99805.78;4956994;29;20197;-66
2023/07/10 03:29:19;;;;;;;9.97;3.40;;;;;;;22.84;61.06;99803.41;4957249;29;20549;-66
2023/07/10 03:31:46;;;;;;;3.70;3.40;;;;;;;22.83;61.10;99802.56;4957298;29;20196;-66
2023/07/10 03:34:13;;;;;;;6.80;3.67;;;;;;;22.72;60.30;99811.78;4957111;28;20202;-66
2023/07/10 03:36:42;;;;;;;10.20;4.10;;;;;;;22.56;60.97;99801.16;4957155;28;20198;-66
2023/07/10 03:39:09;;;;;;;5.33;3.57;;;;;;;22.71;61.05;99804.72;4957135;28;20205;-67
2023/07/10 03:41:36;;;;;;;6.17;3.63;;;;;;;23.00;61.06;99800.47;4957391;28;20197;-66
2023/07/10 03:44:03;;;;;;;3.73;3.07;;;;;;;23.40;59.74;99803.19;4955797;29;20259;-66
2023/07/10 03:46:30;;;;;;;3.73;3.43;;;;;;;23.46;58.57;99801.31;4956864;29;20304;-67
2023/07/10 03:48:57;;;;;;;3.87;3.57;;;;;;;23.43;57.88;99801.84;4957108;29;20193;-67
2023/07/10 03:51:23;;;;;;;8.00;3.70;;;;;;;23.40;58.08;99814.03;4956512;29;20202;-67
2023/07/10 03:53:51;;;;;;;4.50;4.20;;;;;;;23.50;58.00;99814.06;4957064;29;20627;-67
2023/07/10 03:56:18;;;;;;;5.03;4.33;;;;;;;23.42;58.46;99808.34;4956597;29;20269;-67
2023/07/10 03:58:46;;;;;;;7.63;4.03;;;;;;;23.45;58.44;99811.34;4956901;29;20280;-67
2023/07/10 04:01:14;;;;;;;4.90;4.60;;;;;;;23.54;58.35;99812.44;4956339;29;20230;-67
2023/07/10 04:03:41;;;;;;;6.60;4.73;;;;;;;23.47;58.71;99819.19;4956692;29;20204;-67
2023/07/10 04:06:09;;;;;;;4.43;3.90;;;;;;;23.27;59.34;99820.00;4965392;28;20220;-66
2023/07/10 04:08:37;;;;;;;11.13;4.50;;;;;;;23.40;59.41;99822.19;4975464;28;20732;-66
2023/07/10 04:11:08;;;;;;;5.27;3.80;;;;;;;23.61;59.34;99823.00;4975923;28;20193;-66
2023/07/10 04:13:35;;;;;;;10.00;4.10;;;;;;;24.51;56.87;99825.50;4960146;28;20282;-66
2023/07/10 04:16:03;;;;;;;10.70;4.07;;;;;;;25.72;53.23;99836.44;4956290;28;20207;-66
2023/07/10 04:18:32;;;;;;;3.77;3.37;;;;;;;26.85;49.02;99837.34;4956434;29;20208;-66
2023/07/10 04:21:00;;;;;;;5.43;3.70;;;;;;;27.80;46.32;99841.31;4956300;29;20192;-66
2023/07/10 04:23:27;;;;;;;6.73;3.73;;;;;;;28.72;43.74;99834.66;4955949;28;20787;-66
2023/07/10 04:25:55;;;;;;;4.73;3.80;;;;;;;29.60;41.73;99843.03;4955843;29;20707;-66
2023/07/10 04:28:23;;;;;;;8.23;3.43;;;;;;;30.38;39.70;99843.13;4956108;29;20255;-67
2023/07/10 04:30:51;;;;;;;17.37;3.67;;;;;;;31.25;37.68;99863.06;4955508;29;20251;-66
2023/07/10 04:33:22;;;;;;;7.70;3.60;;;;;;;31.84;35.63;99862.22;4955983;28;20200;-66
2023/07/10 04:35:54;;;;;;;9.03;3.90;;;;;;;32.03;35.53;99867.34;4956262;28;20192;-67
2023/07/10 04:38:22;;;;;;;9.63;3.30;;;;;;;32.64;34.82;99862.13;4955986;28;20193;-66
2023/07/10 04:40:53;;;;;;;8.30;3.43;;;;;;;33.14;33.87;99865.69;4955655;28;20700;-67
2023/07/10 04:43:20;;;;;;;4.67;3.73;;;;;;;33.53;33.30;99866.38;4954791;28;20634;-72
2023/07/10 04:45:49;;;;;;;5.03;4.23;;;;;;;33.68;33.07;99865.75;4955929;29;20228;-71
2023/07/10 04:48:16;;;;;;;5.70;3.50;;;;;;;33.86;32.16;99859.75;4955413;29;20224;-72
2023/07/10 04:50:47;;;;;;;13.23;3.43;;;;;;;33.80;31.94;99850.03;4958801;28;20255;-71
2023/07/10 04:53:14;;;;;;;6.55;3.25;;;;;;;34.07;31.08;99859.66;4956960;28;20194;-73
2023/07/10 04:55:40;;;;;;;14.32;3.55;;;;;;;34.40;29.78;99857.66;4955351;29;20204;-70
2023/07/10 04:58:07;;;;;;;3.65;2.90;;;;;;;34.87;28.88;99867.13;4955027;29;20196;-71
2023/07/10 05:00:35;;;;;;;4.13;2.80;;;;;;;35.09;29.11;99861.09;4953380;29;20196;-71
2023/07/10 05:03:05;;;;;;;3.10;2.40;;;;;;;35.47;28.73;99858.69;4954634;29;20202;-73
2023/07/10 05:05:32;;;;;;;3.20;2.90;;;;;;;35.31;27.79;99866.16;4959092;28;20223;-74
2023/07/10 05:08:00;;;;;;;9.05;3.92;;;;;;;35.43;27.07;99866.09;4973467;28;20191;-70
2023/07/10 05:10:26;;;;;;;7.63;4.07;;;;;;;35.56;27.50;99867.66;4954936;28;20291;-67
2023/07/10 05:12:53;;;;;;;6.70;3.50;;;;;;;35.60;27.85;99863.03;4955072;28;20247;-68
2023/07/10 05:15:20;;;;;;;4.18;3.17;;;;;;;35.41;26.93;99877.50;4955240;29;20192;-67
2023/07/10 05:17:47;;;;;;;3.55;3.25;;;;;;;35.31;26.22;99871.66;4955280;28;20224;-68
2023/07/10 05:20:15;;;;;;;3.97;3.50;;;;;;;35.43;26.51;99868.88;4955220;28;20280;-70
2023/07/10 05:22:42;;;;;;;3.42;3.13;;;;;;;35.30;27.11;99875.56;4954782;29;20203;-68
2023/07/10 05:25:09;;;;;;;14.75;3.22;;;;;;;35.78;25.94;99876.22;4954273;29;20279;-66
2023/07/10 05:27:37;;;;;;;5.80;3.55;;;;;;;35.43;26.24;99874.41;4954738;29;20236;-66
2023/07/10 05:30:05;;;;;;;4.03;2.92;;;;;;;35.72;26.00;99865.75;4954356;29;20200;-66
2023/07/10 05:32:32;;;;;;;4.47;3.20;;;;;;;35.57;26.13;99872.03;4954558;28;20195;-66
2023/07/10 05:34:59;;;;;;;5.00;3.08;;;;;;;35.94;26.38;99865.19;4954749;28;20199;-66
2023/07/10 05:37:27;;;;;;;6.45;3.20;;;;;;;35.97;25.94;99870.00;4954863;28;20200;-66
2023/07/10 05:39:54;;;;;;;5.10;3.25;;;;;;;35.49;26.64;99864.69;4954183;28;20287;-66
2023/07/10 05:42:20;;;;;;;17.30;3.60;;;;;;;35.59;27.62;99866.94;4952917;28;20196;-67
2023/07/10 05:44:47;;;;;;;4.90;2.88;;;;;;;36.20;26.56;99871.00;4952749;28;20250;-67
2023/07/10 05:47:14;;;;;;;3.47;3.25;;;;;;;36.01;26.13;99873.69;4952318;28;20700;-67
2023/07/10 05:49:40;;;;;;;14.98;3.67;;;;;;;35.84;26.17;99874.00;4952613;28;20660;-66
2023/07/10 05:52:07;;;;;;;6.03;3.13;;;;;;;35.99;26.63;99875.97;4953270;28;20609;-67
2023/07/10 05:54:36;;;;;;;5.32;3.13;;;;;;;36.33;26.10;99875.31;4953268;28;20204;-66
2023/07/10 05:57:02;;;;;;;6.13;3.13;;;;;;;36.36;26.66;99874.59;4953717;28;20255;-67
2023/07/10 05:59:29;;;;;;;9.00;3.63;;;;;;;36.28;26.76;99878.34;4954493;28;20664;-66
2023/07/10 06:01:57;;;;;;;5.18;3.05;;;;;;;36.27;27.23;99876.75;4954525;28;20196;-66
2023/07/10 06:04:23;;;;;;;4.28;3.97;;;;;;;36.31;26.47;99878.47;4954097;29;20651;-66
2023/07/10 06:06:50;;;;;;;6.88;3.28;;;;;;;36.30;26.08;99874.06;4969925;28;20223;-66
2023/07/10 06:09:17;;;;;;;10.40;3.72;;;;;;;36.08;26.75;99873.84;4959251;28;20283;-66
2023/07/10 06:11:45;;;;;;;10.30;3.63;;;;;;;35.29;26.95;99869.25;4954154;28;20210;-66
2023/07/10 06:14:12;;;;;;;7.63;3.08;;;;;;;35.07;27.27;99868.94;4954299;28;20195;-66
2023/07/10 06:16:38;;;;;;;4.93;3.38;;;;;;;34.89;27.64;99864.81;4954372;28;20251;-66
2023/07/10 06:19:05;;;;;;;3.70;3.50;;;;;;;35.26;27.11;99869.09;4953905;28;20200;-67
2023/07/10 06:21:32;;;;;;;11.43;3.90;;;;;;;35.56;26.34;99860.16;4954290;29;20192;-66
2023/07/10 06:23:58;;;;;;;3.95;3.10;;;;;;;35.42;26.73;99856.19;4953834;29;20199;-66
2023/07/10 06:26:25;;;;;;;4.20;2.92;;;;;;;35.31;27.61;99855.88;4954187;29;20228;-66
2023/07/10 06:28:53;;;;;;;6.43;3.25;;;;;;;35.42;27.13;99861.72;4953341;28;20196;-66
2023/07/10 06:31:20;;;;;;;10.95;4.20;;;;;;;35.77;26.75;99871.03;4953985;29;20555;-66
2023/07/10 06:33:46;;;;;;;5.30;2.45;;;;;;;35.75;27.40;99870.56;4954158;28;20192;-66
2023/07/10 06:36:13;;;;;;;10.07;3.22;;;;;;;35.29;26.68;99879.50;4953784;28;20680;-66
2023/07/10 06:38:40;;;;;;;3.60;3.40;;;;;;;34.60;27.43;99867.78;4954008;28;20204;-66
2023/07/10 06:41:07;;;;;;;7.80;3.05;;;;;;;34.66;27.54;99869.19;4954129;28;20263;-66
2023/07/10 06:43:34;;;;;;;4.40;3.15;;;;;;;34.13;27.83;99866.59;4953895;28;20199;-66
2023/07/10 06:46:02;;;;;;;3.13;2.78;;;;;;;33.80;28.17;99860.28;4953988;28;20223;-66
2023/07/10 06:48:29;;;;;;;6.10;3.03;;;;;;;33.74;29.38;99854.16;4953579;28;20571;-66
2023/07/10 06:50:57;;;;;;;5.32;3.38;;;;;;;33.86;28.69;99847.91;4953996;28;20196;-66
2023/07/10 06:53:25;;;;;;;3.80;2.80;;;;;;;34.34;28.95;99850.78;4953774;28;20271;-66
2023/07/10 06:55:56;;;;;;;7.00;3.20;;;;;;;34.77;27.63;99856.50;4953782;28;20631;-66
2023/07/10 06:58:23;;;;;;;10.95;3.38;;;;;;;34.83;27.52;99855.94;4953819;28;20268;-66
2023/07/10 07:00:49;;;;;;;11.93;3.38;;;;;;;34.88;28.39;99852.97;4953450;28;20200;-66
2023/07/10 07:03:17;;;;;;;5.38;3.15;;;;;;;34.61;27.70;99830.75;4953406;29;20680;-66
2023/07/10 07:05:45;;;;;;;3.30;3.00;;;;;;;34.44;28.25;99836.50;4960332;28;20192;-66
2023/07/10 07:08:12;;;;;;;16.25;4.00;;;;;;;34.14;28.34;99833.16;4968103;28;20247;-66
2023/07/10 07:10:41;;;;;;;9.98;3.05;;;;;;;34.38;27.87;99835.97;4954108;28;20235;-66
2023/07/10 07:13:08;;;;;;;3.00;2.90;;;;;;;34.41;28.49;99848.25;4953751;28;20640;-66
2023/07/10 07:15:34;;;;;;;3.88;2.65;;;;;;;34.30;28.00;99844.31;4953547;28;20743;-66
2023/07/10 07:18:01;;;;;;;5.63;2.88;;;;;;;34.14;28.91;99843.38;4953392;28;20204;-68
2023/07/10 07:20:29;;;;;;;3.38;2.95;;;;;;;34.53;28.57;99853.78;4953353;28;20212;-66
2023/07/10 07:22:56;;;;;;;8.68;3.10;;;;;;;34.23;28.50;99852.34;4934237;29;20200;-66
2023/07/10 07:25:22;;;;;;;3.33;3.10;;;;;;;34.55;27.61;99845.94;4940894;28;20672;-65
2023/07/10 07:27:49;;;;;;;5.95;3.10;;;;;;;33.71;28.80;99841.06;4955862;28;20227;-66
2023/07/10 07:30:16;;;;;;;4.97;2.65;;;;;;;34.04;29.24;99838.31;4966858;28;20247;-67
2023/07/10 07:32:44;;;;;;;3.35;3.15;;;;;;;34.44;29.10;99842.03;4953098;28;20742;-64
2023/07/10 07:35:11;;;;;;;3.15;2.85;;;;;;;34.46;28.05;99845.25;4953394;28;20255;-64
2023/07/10 07:37:39;;;;;;;4.35;2.88;;;;;;;34.18;28.77;99847.06;4951546;28;20251;-64
2023/07/10 07:40:09;;;;;;;5.03;2.92;;;;;;;34.37;28.83;99833.53;4951295;28;20755;-65
2023/07/10 07:42:36;;;;;;;9.65;3.55;;;;;;;34.86;28.46;99837.91;4954009;29;20572;-64
2023/07/10 07:45:03;;;;;;;4.95;3.30;;;;;;;34.74;27.71;99830.41;4960754;28;20192;-63
2023/07/10 07:47:30;;;;;;;5.38;3.08;;;;;;;34.37;28.90;99828.03;4954603;29;20662;-64
2023/07/10 07:49:56;;;;;;;3.00;2.70;;;;;;;34.49;28.04;99812.25;4954055;29;20252;-64
2023/07/10 07:52:23;;;;;;;30.38;4.45;;;;;;;34.40;27.99;99819.84;4956115;28;20204;-63
2023/07/10 07:54:51;;;;;;;5.05;3.13;;;;;;;34.48;28.21;99809.84;4964488;28;20660;-63
2023/07/10 07:57:18;;;;;;;6.82;3.00;;;;;;;34.79;27.74;99821.09;4958449;28;20196;-63
2023/07/10 07:59:45;;;;;;;5.15;3.10;;;;;;;34.67;28.38;99813.63;4952858;29;20290;-62
2023/07/10 08:02:11;;;;;;;11.30;3.05;;;;;;;34.85;28.37;99830.75;4954239;28;20192;-62
2023/07/10 08:04:38;;;;;;;5.85;2.97;;;;;;;34.85;28.31;99819.72;4953758;29;20672;-62
2023/07/10 08:07:05;;;;;;;5.25;3.67;;;;;;;34.80;27.76;99811.66;4972536;28;20643;-62
2023/07/10 08:09:32;;;;;;;4.22;3.40;;;;;;;35.00;28.25;99819.00;4958525;28;20257;-63
2023/07/10 08:12:00;;;;;;;7.68;2.92;;;;;;;34.78;27.81;99808.44;4954823;29;20622;-62
2023/07/10 08:14:27;;;;;;;4.45;3.05;;;;;;;34.73;27.83;99805.91;4955437;29;20912;-63
2023/07/10 08:16:54;;;;;;;6.55;3.20;;;;;;;35.03;27.91;99804.50;4954532;29;20204;-63
2023/07/10 08:19:22;;;;;;;4.18;3.65;;;;;;;34.66;28.41;99800.19;4955504;29;20239;-63
2023/07/10 08:21:48;;;;;;;4.57;4.05;;;;;;;35.04;27.79;99800.56;4955397;29;20262;-62
2023/07/10 08:24:15;;;;;;;5.32;3.42;;;;;;;35.67;27.79;99802.38;4954990;29;20279;-62
2023/07/10 08:26:42;;;;;;;4.80;3.75;;;;;;;35.57;27.77;99789.91;4955423;29;20282;-63
2023/07/10 08:29:24;;;;;;;4.72;3.50;;;;;;;35.53;27.24;99775.19;4955729;29;20266;-63
2023/07/10 08:31:52;;;;;;;3.28;3.00;;;;;;;35.71;26.96;99787.50;4955171;29;20192;-62
2023/07/10 08:34:18;;;;;;;6.03;3.50;;;;;;;35.48;26.10;99793.97;4954025;29;20196;-63
2023/07/10 08:36:45;;;;;;;3.75;3.40;;;;;;;35.77;26.49;99797.16;4952633;29;20228;-63
2023/07/10 08:39:12;;;;;;;3.50;2.97;;;;;;;36.04;25.28;99790.75;4954289;28;20199;-63
2023/07/10 08:41:40;;;;;;;9.88;4.20;;;;;;;35.27;25.79;99785.06;4954969;29;20735;-63
2023/07/10 08:44:10;;;;;;;16.75;4.43;;;;;;;35.74;25.56;99791.53;4953084;29;20603;-63
2023/07/10 08:46:39;;;;;;;5.03;3.10;;;;;;;35.53;26.36;99779.91;4954606;29;20212;-62
2023/07/10 08:49:14;;;;;;;2.22;2.13;;;;;;;35.56;24.56;99790.25;4951930;29;20738;-64
2023/07/10 08:51:51;;;;;;;7.60;2.60;;;;;;;35.37;24.62;99787.34;4951911;28;20634;-64
2023/07/10 08:54:18;;;;;;;4.43;3.72;;;;;;;35.27;25.92;99777.56;4953352;29;20255;-64
2023/07/10 08:56:50;;;;;;;5.03;4.20;;;;;;;35.29;26.98;99780.00;4953852;29;20202;-62
2023/07/10 08:59:34;;;;;;;3.70;3.28;;;;;;;35.02;26.80;99778.03;4954538;29;20189;-63
2023/07/10 09:02:03;;;;;;;3.08;2.92;;;;;;;35.43;26.47;99780.44;4953200;29;20282;-62
2023/07/10 09:04:31;;;;;;;5.45;3.20;;;;;;;35.61;26.33;99770.63;4953895;29;20255;-64
2023/07/10 09:07:01;;;;;;;10.80;3.13;;;;;;;35.51;25.37;99773.91;4971083;28;20219;-62
2023/07/10 09:09:37;;;;;;;7.88;3.05;;;;;;;35.40;24.73;99776.38;4958157;28;20232;-63
2023/07/10 09:12:09;;;;;;;7.63;2.83;;;;;;;35.66;24.47;99778.66;4954616;29;20672;-62
2023/07/10 09:14:42;;;;;;;8.32;3.28;;;;;;;35.93;24.89;99775.06;4953983;29;20251;-63
2023/07/10 09:17:20;;;;;;;3.28;2.97;;;;;;;36.31;25.59;99769.72;4953668;29;20576;-63
2023/07/10 09:19:53;;;;;;;2.78;2.50;;;;;;;36.55;24.25;99755.66;4953304;29;20545;-64
2023/07/10 09:22:20;;;;;;;4.72;2.80;;;;;;;36.80;24.04;99768.09;4952829;29;20451;-63
2023/07/10 09:24:47;;;;;;;3.10;2.92;;;;;;;36.70;24.60;99768.69;4954027;29;20676;-63
2023/07/10 09:27:15;;;;;;;3.53;2.65;;;;;;;36.08;24.50;99741.03;4954170;29;20234;-62
2023/07/10 09:29:46;;;;;;;3.20;2.55;;;;;;;36.31;24.30;99766.94;4953785;29;20290;-64
2023/07/10 09:32:16;;;;;;;3.30;3.10;;;;;;;36.14;25.29;99756.22;4953302;29;20255;-64
2023/07/10 09:34:46;;;;;;;5.60;3.42;;;;;;;36.14;25.15;99756.22;4952386;29;20196;-64
2023/07/10 09:37:15;;;;;;;6.68;3.42;;;;;;;35.92;24.97;99754.06;4953489;28;20212;-62
2023/07/10 09:39:42;;;;;;;3.72;2.90;;;;;;;36.00;24.99;99761.41;4954084;28;20209;-62
2023/07/10 09:42:14;;;;;;;4.70;2.95;;;;;;;36.11;24.81;99749.44;4953568;28;20617;-63
2023/07/10 09:44:47;;;;;;;2.40;2.30;;;;;;;36.04;25.24;99745.69;4953263;29;20188;-65
2023/07/10 09:47:17;;;;;;;2.83;2.70;;;;;;;36.12;24.61;99753.81;4937409;29;20203;-65
2023/07/10 09:49:47;;;;;;;20.33;3.75;;;;;;;36.06;24.08;99743.38;4953123;29;20192;-65
2023/07/10 09:52:20;;;;;;;5.57;2.97;;;;;;;36.13;25.52;99743.56;4953003;29;20203;-64
2023/07/10 09:54:46;;;;;;;2.40;2.30;;;;;;;36.39;23.77;99713.34;4952881;29;20653;-62
2023/07/10 09:57:15;;;;;;;2.58;2.45;;;;;;;36.76;23.77;99739.53;4952143;29;20505;-64
2023/07/10 09:59:49;;;;;;;2.63;2.53;;;;;;;36.68;23.54;99729.47;4953082;29;20262;-64
2023/07/10 10:02:20;;;;;;;2.17;2.08;;;;;;;36.37;24.09;99729.50;4950222;29;20228;-65
2023/07/10 10:04:52;;;;;;;16.60;3.30;;;;;;;35.77;24.99;99730.00;4951479;28;20255;-64
2023/07/10 10:07:21;;;;;;;2.45;2.33;;;;;;;35.69;25.13;99733.72;4972402;28;20218;-63
2023/07/10 10:10:01;;;;;;;4.40;2.40;;;;;;;35.56;25.07;99729.44;4954521;28;20678;-62
2023/07/10 10:12:32;;;;;;;3.42;2.45;;;;;;;35.47;25.39;99726.84;4934238;29;20200;-63
2023/07/10 10:15:03;;;;;;;2.58;2.38;;;;;;;35.47;25.16;99729.59;4933298;29;20723;-63
2023/07/10 10:17:37;;;;;;;2.40;2.30;;;;;;;35.60;23.68;99730.34;4934331;29;20193;-63
2023/07/10 10:20:09;;;;;;;2.63;2.30;;;;;;;35.67;23.19;99716.66;4946406;29;20191;-64
2023/07/10 10:22:36;;;;;;;7.82;3.03;;;;;;;35.54;23.43;99720.69;4952417;28;20669;-64
2023/07/10 10:25:03;;;;;;;2.15;2.05;;;;;;;35.64;23.94;99706.34;4956009;28;20255;-61
2023/07/10 10:27:41;;;;;;;7.35;2.80;;;;;;;35.87;23.63;99715.63;4951724;29;20232;-69
2023/07/10 10:30:22;;;;;;;3.15;2.05;;;;;;;35.75;23.55;99719.31;4952063;29;20191;-70
2023/07/10 10:33:01;;;;;;;2.53;2.17;;;;;;;36.11;23.58;99702.41;4956760;28;20191;-69
2023/07/10 10:35:38;;;;;;;2.55;2.35;;;;;;;36.39;23.25;99707.81;4958915;28;20188;-68
2023/07/10 10:38:22;;;;;;;3.35;2.30;;;;;;;36.65;22.80;99699.69;4952014;28;20207;-67
2023/07/10 10:40:56;;;;;;;3.17;1.90;;;;;;;36.28;23.41;99690.97;4951603;29;20607;-69
2023/07/10 10:43:40;;;;;;;3.25;2.38;;;;;;;35.86;23.54;99689.16;4951467;29;20250;-68
2023/07/10 10:46:19;;;;;;;2.28;2.08;;;;;;;36.03;23.64;99688.75;4952612;29;20192;-74
2023/07/10 10:48:55;;;;;;;2.30;2.10;;;;;;;36.35;23.49;99680.06;4952468;29;20762;-66
2023/07/10 10:51:29;;;;;;;2.10;2.00;;;;;;;36.24;23.09;99678.22;4952736;29;20655;-68
2023/07/10 10:54:10;;;;;;;1.85;1.75;;;;;;;36.51;22.82;99674.47;4951345;29;20187;-68
2023/07/10 10:56:43;;;;;;;2.00;1.90;;;;;;;36.46;23.14;99674.78;4952681;29;20682;-67
2023/07/10 10:59:31;;;;;;;10.02;2.60;;;;;;;36.65;23.06;99678.34;4952992;29;20196;-70
2023/07/10 11:02:14;;;;;;;2.78;2.00;;;;;;;36.78;23.75;99673.47;4952383;29;20192;-71
2023/07/10 11:04:46;;;;;;;2.38;2.20;;;;;;;36.78;23.64;99667.94;4956243;28;20246;-70
2023/07/10 11:07:15;;;;;;;5.22;2.78;;;;;;;36.91;24.14;99669.41;4970259;28;20251;-73
2023/07/10 11:09:45;;;;;;;3.40;3.20;;;;;;;36.75;24.39;99671.47;4953597;28;20287;-74
2023/07/10 11:12:17;;;;;;;4.28;3.28;;;;;;;36.84;24.54;99672.03;4960350;28;20184;-69
2023/07/10 11:14:45;;;;;;;2.88;2.50;;;;;;;36.71;24.63;99659.50;4966878;28;20188;-70
2023/07/10 11:17:12;;;;;;;6.47;4.53;;;;;;;36.50;24.51;99661.81;4976076;28;20257;-67
2023/07/10 11:19:41;;;;;;;4.25;2.90;;;;;;;36.44;23.50;99654.94;4973843;28;20258;-69
2023/07/10 11:22:12;;;;;;;8.48;3.58;;;;;;;36.62;24.00;99656.91;4956425;29;20196;-70
2023/07/10 11:24:48;;;;;;;3.58;2.75;;;;;;;36.34;23.19;99650.00;4956311;29;20636;-70
2023/07/10 11:27:22;;;;;;;2.20;2.10;;;;;;;35.96;23.29;99644.34;4955821;29;20192;-71
2023/07/10 11:29:56;;;;;;;2.78;2.50;;;;;;;36.35;23.88;99634.97;4956084;29;20755;-69
2023/07/10 11:32:25;;;;;;;4.13;2.85;;;;;;;36.26;24.09;99642.69;4967556;28;20273;-71
2023/07/10 11:35:17;;;;;;;3.17;2.85;;;;;;;35.81;24.69;99634.13;4974848;28;20262;-69
2023/07/10 11:38:15;;;;;;;6.63;3.28;;;;;;;35.72;24.97;99630.72;4966997;28;20220;-68
2023/07/10 11:40:53;;;;;;;3.25;2.28;;;;;;;35.65;24.72;99627.78;4963167;28;20181;-67